Monday, January 21, 2019, 10:39 PM GMT
Back to Local

CYSC, Sherbrooke, Que.

Location: , , Canada Lat: 45.4
Local Time: 10:39 PM GMT (22:39 GMT) Lon: -71.883
Time Zone: GMT Elev: 557 ft

Show me the last for .
Show Decoded

2019-01-21 22:10 METAR CYSC 212210Z AUTO 27011KT 2SM -SN OVC016 M19/M22 A2987 RMK SLP143 =
2019-01-21 22:03 METAR CYSC 212203Z AUTO 27010KT 1 3/4SM -SN OVC016 M19/M22 A2987 RMK SLP143 =
2019-01-21 22:00 METAR CYSC 212200Z AUTO 26007KT 2 1/4SM -SN OVC016 M19/M22 A2987 RMK SLP142 =
2019-01-21 21:50 METAR CYSC 212150Z AUTO 26009KT 2SM -SN OVC016 M19/M22 A2987 RMK SLP141 =
2019-01-21 21:47 METAR CYSC 212147Z AUTO 26008KT 1 3/4SM -SN VV015 M19/M22 A2987 RMK SLP140 =
2019-01-21 21:36 METAR CYSC 212136Z AUTO 27010G15KT 3/4SM -SN OVC013 M19/M22 A2987 RMK SLP140 =
2019-01-21 21:00 METAR CYSC 212100Z AUTO 28011G17KT 1 3/4SM -SN OVC015 M20/M23 A2985 RMK SLP135 =
2019-01-21 20:00 METAR CYSC 212000Z AUTO 28011G16KT 1SM -SN VV012 M20/M23 A2982 RMK SLP125 =
2019-01-21 19:46 METAR CYSC 211946Z AUTO 28013G21KT 1SM -SN VV013 M20/M23 A2981 RMK SLP123 =
2019-01-21 19:00 METAR CYSC 211900Z AUTO 29014G21KT 3/4SM -SN VV012 M21/M24 A2979 RMK SLP114 =
2019-01-21 18:00 METAR CYSC 211800Z AUTO 28014G23KT 5/8SM -SN VV012 M20/M24 A2978 RMK SLP112 =
2019-01-21 17:14 METAR CYSC 211714Z AUTO 28018G23KT 3/4SM -SN VV013 M21/M24 A2977 RMK SLP109 =
2019-01-21 17:00 METAR CYSC 211700Z AUTO 29014G21KT 1SM -SN VV013 M20/M24 A2977 RMK SLP109 =
2019-01-21 16:45 METAR CYSC 211645Z AUTO 29015G20KT 1SM -SN VV012 M21/M24 A2977 RMK SLP108 =
2019-01-21 16:20 METAR CYSC 211620Z AUTO 28015KT 3/4SM -SN VV013 M21/M24 A2977 RMK SLP109 =
2019-01-21 16:00 METAR CYSC 211600Z AUTO 28014G19KT 1SM -SN VV014 M21/M24 A2977 RMK SLP108 =
2019-01-21 15:13 METAR CYSC 211513Z AUTO 28013G21KT 1SM -SN VV012 M21/M24 A2976 RMK SLP105 =
2019-01-21 15:03 METAR CYSC 211503Z AUTO 27015G20KT 3/4SM -SN VV013 M21/M24 A2975 RMK SLP103 =
2019-01-21 15:00 METAR CYSC 211500Z AUTO 27013G20KT 1SM -SN VV013 M21/M24 A2975 RMK SLP103 =
2019-01-21 14:22 METAR CYSC 211422Z AUTO 27014KT 1SM -SN VV014 M21/M24 A2974 RMK SLP096 =
2019-01-21 14:15 METAR CYSC 211415Z AUTO 28012G20KT 3/4SM -SN VV014 M21/M24 A2974 RMK VIS VRB
                 3/8-2 SLP097 =
2019-01-21 14:10 METAR CYSC 211410Z AUTO 27014G20KT 1 1/2SM -SN OVC016 M21/M25 A2974 RMK SLP096
2019-01-21 14:07 METAR CYSC 211407Z AUTO 27015KT 2 1/2SM -SN OVC016 M21/M25 A2974 RMK SLP096 =
2019-01-21 14:00 METAR CYSC 211400Z AUTO 28012G17KT 3SM -SN OVC016 M21/M25 A2974 RMK SLP097 =
2019-01-21 13:40 METAR CYSC 211340Z AUTO 27011G16KT 3SM -SN BKN014 OVC019 M21/M25 A2973 RMK
                 SLP093 =
2019-01-21 13:33 METAR CYSC 211333Z AUTO 27012G18KT 2SM -SN FEW009 OVC012 M22/M25 A2972 RMK
                 SLP091 =
2019-01-21 13:23 METAR CYSC 211323Z AUTO 27013G18KT 1SM -SN VV011 M22/M25 A2972 RMK SLP090 =
2019-01-21 13:04 METAR CYSC 211304Z AUTO 27016KT 3/4SM -SN VV012 M22/M25 A2971 RMK SLP087 =
2019-01-21 13:00 METAR CYSC 211300Z AUTO 27013G18KT 1 1/4SM -SN OVC013 M22/M25 A2971 RMK SLP087 =
2019-01-21 12:42 METAR CYSC 211242Z AUTO 27011G18KT 1 1/2SM -SN VV013 M22/M25 A2971 RMK SLP085 =
2019-01-21 12:32 METAR CYSC 211232Z AUTO 28014G20KT 3/4SM -SN OVC012 M22/M25 A2970 RMK SLP083 =
2019-01-21 12:30 METAR CYSC 211230Z AUTO 27014G20KT 1 1/2SM -SN OVC014 M22/M25 A2970 RMK SLP082 =
2019-01-21 12:29 METAR CYSC 211229Z AUTO 27013G19KT 2SM -SN OVC014 M22/M25 A2970 RMK SLP082 =
2019-01-21 12:00 METAR CYSC 211200Z AUTO 28011G20KT 1 1/2SM -SN OVC014 M21/M24 A2969 RMK SLP080 =
2019-01-21 11:25 METAR CYSC 211125Z AUTO 28014KT 1 3/4SM -SN OVC014 M21/M24 A2968 RMK SLP075 =
2019-01-21 11:00 METAR CYSC 211100Z AUTO 28014G19KT 2SM -SN OVC014 M21/M24 A2968 RMK SLP074 =
2019-01-21 10:43 METAR CYSC 211043Z AUTO 28013KT 2 1/4SM -SN OVC014 M21/M24 A2967 RMK SLP073 =
2019-01-21 10:00 METAR CYSC 211000Z AUTO 28012G17KT 3SM -SN OVC016 M21/M24 A2967 RMK SLP073 =
2019-01-21 09:00 METAR CYSC 210900Z AUTO 28012G17KT 4SM -SN OVC016 M21/M24 A2965 RMK SLP066 =
2019-01-21 08:17 METAR CYSC 210817Z AUTO 27011KT 5SM -SN BKN018 BKN038 OVC047 M21/M24 A2965 RMK
                 SLP066 =
2019-01-21 08:08 METAR CYSC 210808Z AUTO 27011KT 5SM -SN SCT018 BKN038 OVC045 M21/M24 A2965 RMK
                 SLP066 =
2019-01-21 08:00 METAR CYSC 210800Z AUTO 27008KT 6SM -SN FEW018 BKN038 BKN045 M21/M24 A2965 RMK
                 SLP066 =
2019-01-21 07:00 METAR CYSC 210700Z AUTO 28012G18KT 7SM -SN OVC038 M21/M25 A2964 RMK SLP063 =
2019-01-21 06:40 METAR CYSC 210640Z AUTO 28012KT 6SM -SN SCT017 BKN036 M21/M25 A2963 RMK SLP061 =
2019-01-21 06:38 METAR CYSC 210638Z AUTO 28010G15KT 5SM -SN SCT017 BKN036 M21/M25 A2963 RMK
                 SLP061 =
2019-01-21 06:27 METAR CYSC 210627Z AUTO 28011G18KT 3SM -SN BKN017 M21/M25 A2963 RMK SLP059 =
2019-01-21 06:00 METAR CYSC 210600Z AUTO 28011G16KT 2 1/4SM -SN BKN017 OVC029 M22/M24 A2962 RMK
                 SLP056 =
2019-01-21 05:46 METAR CYSC 210546Z AUTO 28010G16KT 2 1/2SM -SN BKN017 BKN034 M22/M25 A2962 RMK
                 SLP054 =
2019-01-21 05:45 METAR CYSC 210545Z AUTO 29012KT 2 1/2SM -SN SCT017 BKN034 M22/M25 A2962 RMK
                 SLP054 =
2019-01-21 05:39 METAR CYSC 210539Z AUTO 28012G17KT 5SM -SN SCT017 SCT028 BKN034 M22/M25 A2961
                 RMK SLP053 =
2019-01-21 05:31 METAR CYSC 210531Z AUTO 29013KT 6SM -SN SCT017 OVC034 M22/M25 A2961 RMK SLP053 =
2019-01-21 05:00 METAR CYSC 210500Z AUTO 27012KT 3SM -SN BKN017 BKN034 M22/M25 A2961 RMK SLP052 =
2019-01-21 04:59 METAR CYSC 210459Z AUTO 28013KT 3SM -SN BKN017 BKN034 M22/M25 A2961 RMK SLP051 =
2019-01-21 04:53 METAR CYSC 210453Z AUTO 27012KT 5SM -SN SCT019 BKN034 M22/M25 A2961 RMK SLP051 =
2019-01-21 04:00 METAR CYSC 210400Z AUTO 29011G17KT 6SM -SN FEW032 M22/M25 A2959 RMK SLP045 =
2019-01-21 03:00 METAR CYSC 210300Z AUTO 28010G19KT 9SM -SN FEW032 M22/M25 A2960 RMK SLP047 =
2019-01-21 02:35 METAR CYSC 210235Z AUTO 29013G19KT 6SM -SN FEW021 M22/M25 A2959 RMK SLP043 =
2019-01-21 02:05 METAR CYSC 210205Z AUTO 29014KT 5SM -SN SCT019 M21/M24 A2958 RMK SLP039 =
2019-01-21 02:00 METAR CYSC 210200Z AUTO 30013G18KT 6SM -SN SCT019 M21/M24 A2957 RMK SLP037 =
2019-01-21 01:58 METAR CYSC 210158Z AUTO 30013G18KT 6SM -SN SCT019 M21/M24 A2957 RMK SLP037 =
2019-01-21 01:56 METAR CYSC 210156Z AUTO 30012G18KT 6SM -SN BKN019 M21/M24 A2957 RMK SLP036 =
2019-01-21 01:44 METAR CYSC 210144Z AUTO 30011G16KT 4SM -SN BKN019 M20/M23 A2957 RMK SLP038 =
2019-01-21 01:41 METAR CYSC 210141Z AUTO 31011G17KT 4SM -SN SCT019 M20/M23 A2957 RMK SLP038 =
2019-01-21 01:31 METAR CYSC 210131Z AUTO 30012G21KT 3SM -SN BKN019 BKN085 M20/M23 A2957 RMK
                 SLP036 =
2019-01-21 01:13 METAR CYSC 210113Z AUTO 29015KT 5SM -SN FEW019 OVC085 M19/M22 A2956 RMK SLP032 =
2019-01-21 01:00 METAR CYSC 210100Z AUTO 32009KT 9SM -SN OVC085 M18/M21 A2956 RMK SLP032 =
2019-01-21 00:37 METAR CYSC 210037Z AUTO 32006KT 290V360 6SM -SN SCT016 BKN085 M18/M21 A2956 RMK
                 SLP034 =
2019-01-21 00:35 METAR CYSC 210035Z AUTO 31005KT 290V360 6SM -SN BKN016 BKN085 M18/M21 A2957 RMK
                 SLP035 =
2019-01-21 00:17 METAR CYSC 210017Z AUTO 31007KT 3SM -SN FEW010 OVC014 M18/M21 A2957 RMK SLP037 =
2019-01-21 00:10 METAR CYSC 210010Z AUTO 32007KT 2SM -SN FEW010 OVC014 M18/M21 A2956 RMK SLP033 =
2019-01-21 00:00 METAR CYSC 210000Z AUTO 32008G15KT 270V340 1 1/2SM -SN OVC012 M18/M21 A2956 RMK
                 SLP033 =
2019-01-20 23:27 METAR CYSC 202327Z AUTO 30007KT 1 3/4SM -SN BKN016 M17/M20 A2955 RMK SLP030 =
2019-01-20 23:25 METAR CYSC 202325Z AUTO 29007KT 2 1/4SM -SN BKN016 M17/M20 A2955 RMK SLP030
2019-01-20 23:17 METAR CYSC 202317Z AUTO 30006KT 4SM -SN BKN018 M17/M20 A2955 RMK SLP028 =
2019-01-20 23:10 METAR CYSC 202310Z AUTO 30005KT 4SM -SN SCT018 M17/M20 A2955 RMK SLP030 =
2019-01-20 23:00 METAR CYSC 202300Z AUTO 30005KT 270V330 4SM -SN BKN016 BKN025 M17/M20 A2955 RMK
                 PRESRR SLP031 =
2019-01-20 22:50 METAR CYSC 202250Z AUTO 31005KT 280V030 5SM -SN BKN014 BKN025 M17/M20 A2954 RMK
                 SLP026 =
2019-01-20 22:46 METAR CYSC 202246Z AUTO 35004KT 330V030 6SM -SN BKN012 BKN025 M17/M20 A2953 RMK
                 SLP023 =

Support USWX by starting your Amazon purchase here.